sensor_id;sensor_type;location;lat;lon;timestamp;pressure;altitude;pressure_sealevel;temperature;humidity
11523;BME280;40093;43.224;27.910;2023-03-16T00:01:01;99453.25;;;10.87;100.00
11523;BME280;40093;43.224;27.910;2023-03-16T00:03:28;99457.91;;;10.94;100.00
11523;BME280;40093;43.224;27.910;2023-03-16T00:05:55;99445.31;;;10.96;100.00
11523;BME280;40093;43.224;27.910;2023-03-16T00:08:21;99464.16;;;11.01;100.00
11523;BME280;40093;43.224;27.910;2023-03-16T00:10:48;99457.03;;;11.07;100.00
11523;BME280;40093;43.224;27.910;2023-03-16T00:13:20;99460.16;;;11.09;100.00
11523;BME280;40093;43.224;27.910;2023-03-16T00:15:51;99453.91;;;11.09;100.00
11523;BME280;40093;43.224;27.910;2023-03-16T00:18:21;99464.06;;;11.15;100.00
11523;BME280;40093;43.224;27.910;2023-03-16T00:20:52;99464.81;;;11.19;100.00
11523;BME280;40093;43.224;27.910;2023-03-16T00:23:20;99466.38;;;11.24;100.00
11523;BME280;40093;43.224;27.910;2023-03-16T00:25:51;99462.41;;;11.25;100.00
11523;BME280;40093;43.224;27.910;2023-03-16T00:28:18;99472.22;;;11.29;100.00
11523;BME280;40093;43.224;27.910;2023-03-16T00:30:46;99459.19;;;11.33;100.00
11523;BME280;40093;43.224;27.910;2023-03-16T00:33:13;99451.34;;;11.35;100.00
11523;BME280;40093;43.224;27.910;2023-03-16T00:35:44;99459.19;;;11.33;100.00
11523;BME280;40093;43.224;27.910;2023-03-16T00:38:14;99462.78;;;11.27;100.00
11523;BME280;40093;43.224;27.910;2023-03-16T00:40:41;99449.81;;;11.27;100.00
11523;BME280;40093;43.224;27.910;2023-03-16T00:43:08;99466.34;;;11.27;100.00
11523;BME280;40093;43.224;27.910;2023-03-16T00:45:34;99464.34;;;11.31;100.00
11523;BME280;40093;43.224;27.910;2023-03-16T00:48:01;99462.75;;;11.34;100.00
11523;BME280;40093;43.224;27.910;2023-03-16T00:50:28;99460.38;;;11.36;100.00
11523;BME280;40093;43.224;27.910;2023-03-16T00:52:57;99467.03;;;11.38;100.00
11523;BME280;40093;43.224;27.910;2023-03-16T00:55:23;99458.78;;;11.38;100.00
11523;BME280;40093;43.224;27.910;2023-03-16T00:57:51;99459.19;;;11.33;100.00
11523;BME280;40093;43.224;27.910;2023-03-16T01:00:19;99465.16;;;11.28;100.00
11523;BME280;40093;43.224;27.910;2023-03-16T01:02:46;99462.41;;;11.28;100.00
11523;BME280;40093;43.224;27.910;2023-03-16T01:05:14;99465.53;;;11.30;100.00
11523;BME280;40093;43.224;27.910;2023-03-16T01:07:41;99462.03;;;11.26;100.00
11523;BME280;40093;43.224;27.910;2023-03-16T01:10:12;99457.88;;;11.04;100.00
11523;BME280;40093;43.224;27.910;2023-03-16T01:12:39;99468.91;;;11.01;100.00
11523;BME280;40093;43.224;27.910;2023-03-16T01:15:07;99461.75;;;11.07;100.00
11523;BME280;40093;43.224;27.910;2023-03-16T01:17:34;99467.22;;;11.14;100.00
11523;BME280;40093;43.224;27.910;2023-03-16T01:20:01;99467.25;;;11.10;100.00
11523;BME280;40093;43.224;27.910;2023-03-16T01:22:32;99468.31;;;10.65;100.00
11523;BME280;40093;43.224;27.910;2023-03-16T01:24:59;99462.41;;;10.67;100.00
11523;BME280;40093;43.224;27.910;2023-03-16T01:27:27;99461.22;;;10.71;100.00
11523;BME280;40093;43.224;27.910;2023-03-16T01:29:54;99466.28;;;10.80;100.00
11523;BME280;40093;43.224;27.910;2023-03-16T01:32:21;99463.91;;;10.78;100.00
11523;BME280;40093;43.224;27.910;2023-03-16T01:34:48;99476.88;;;10.81;100.00
11523;BME280;40093;43.224;27.910;2023-03-16T01:37:15;99481.56;;;10.84;100.00
11523;BME280;40093;43.224;27.910;2023-03-16T01:39:42;99481.94;;;10.90;100.00
11523;BME280;40093;43.224;27.910;2023-03-16T01:42:09;99479.22;;;10.79;100.00
11523;BME280;40093;43.224;27.910;2023-03-16T01:44:52;99488.28;;;10.76;100.00
11523;BME280;40093;43.224;27.910;2023-03-16T01:47:21;99494.22;;;10.71;100.00
11523;BME280;40093;43.224;27.910;2023-03-16T01:49:51;99489.47;;;10.75;100.00
11523;BME280;40093;43.224;27.910;2023-03-16T01:52:21;99489.41;;;10.89;100.00
11523;BME280;40093;43.224;27.910;2023-03-16T01:54:51;99497.25;;;10.94;100.00
11523;BME280;40093;43.224;27.910;2023-03-16T01:57:21;99501.22;;;10.86;100.00
11523;BME280;40093;43.224;27.910;2023-03-16T01:59:53;99497.31;;;10.80;100.00
11523;BME280;40093;43.224;27.910;2023-03-16T02:02:23;99502.41;;;10.89;100.00
11523;BME280;40093;43.224;27.910;2023-03-16T02:04:54;99502.38;;;10.92;100.00
11523;BME280;40093;43.224;27.910;2023-03-16T02:07:24;99498.00;;;10.95;100.00
11523;BME280;40093;43.224;27.910;2023-03-16T02:09:56;99501.94;;;11.01;100.00
11523;BME280;40093;43.224;27.910;2023-03-16T02:12:24;99510.91;;;11.08;100.00
11523;BME280;40093;43.224;27.910;2023-03-16T02:14:52;99509.72;;;11.09;100.00
11523;BME280;40093;43.224;27.910;2023-03-16T02:17:21;99517.59;;;11.11;100.00
11523;BME280;40093;43.224;27.910;2023-03-16T02:19:57;99512.91;;;11.04;100.00
11523;BME280;40093;43.224;27.910;2023-03-16T02:22:26;99514.06;;;11.10;100.00
11523;BME280;40093;43.224;27.910;2023-03-16T02:24:54;99508.16;;;11.12;100.00
11523;BME280;40093;43.224;27.910;2023-03-16T02:27:25;99507.41;;;11.04;100.00
11523;BME280;40093;43.224;27.910;2023-03-16T02:30:02;99510.19;;;11.01;100.00
11523;BME280;40093;43.224;27.910;2023-03-16T02:32:31;99516.81;;;11.07;100.00
11523;BME280;40093;43.224;27.910;2023-03-16T02:34:59;99510.53;;;11.10;100.00
11523;BME280;40093;43.224;27.910;2023-03-16T02:37:27;99509.75;;;11.06;100.00
11523;BME280;40093;43.224;27.910;2023-03-16T02:39:53;99512.94;;;10.97;100.00
11523;BME280;40093;43.224;27.910;2023-03-16T02:42:22;99516.91;;;10.89;100.00
11523;BME280;40093;43.224;27.910;2023-03-16T02:44:53;99515.44;;;10.74;100.00
11523;BME280;40093;43.224;27.910;2023-03-16T02:47:27;99509.50;;;10.79;100.00
11523;BME280;40093;43.224;27.910;2023-03-16T02:49:55;99520.03;;;10.98;100.00
11523;BME280;40093;43.224;27.910;2023-03-16T02:52:22;99521.56;;;11.06;100.00
11523;BME280;40093;43.224;27.910;2023-03-16T02:54:49;99525.06;;;11.10;100.00
11523;BME280;40093;43.224;27.910;2023-03-16T02:57:16;99522.31;;;11.07;100.00
11523;BME280;40093;43.224;27.910;2023-03-16T02:59:43;99537.25;;;11.09;100.00
11523;BME280;40093;43.224;27.910;2023-03-16T03:02:10;99528.59;;;11.14;100.00
11523;BME280;40093;43.224;27.910;2023-03-16T03:04:38;99528.59;;;11.14;100.00
11523;BME280;40093;43.224;27.910;2023-03-16T03:07:06;99525.50;;;11.05;100.00
11523;BME280;40093;43.224;27.910;2023-03-16T03:09:33;99533.41;;;10.96;100.00
11523;BME280;40093;43.224;27.910;2023-03-16T03:12:00;99538.91;;;10.96;100.00
11523;BME280;40093;43.224;27.910;2023-03-16T03:14:27;99545.22;;;10.97;100.00
11523;BME280;40093;43.224;27.910;2023-03-16T03:16:54;99538.09;;;10.99;100.00
11523;BME280;40093;43.224;27.910;2023-03-16T03:19:21;99549.50;;;11.01;100.00
11523;BME280;40093;43.224;27.910;2023-03-16T03:21:51;99542.00;;;11.05;100.00
11523;BME280;40093;43.224;27.910;2023-03-16T03:24:22;99558.56;;;10.98;100.00
11523;BME280;40093;43.224;27.910;2023-03-16T03:26:49;99553.13;;;10.84;100.00
11523;BME280;40093;43.224;27.910;2023-03-16T03:29:17;99560.28;;;10.68;100.00
11523;BME280;40093;43.224;27.910;2023-03-16T03:31:44;99557.97;;;10.59;100.00
11523;BME280;40093;43.224;27.910;2023-03-16T03:34:11;99555.59;;;10.58;100.00
11523;BME280;40093;43.224;27.910;2023-03-16T03:36:38;99555.59;;;10.65;100.00
11523;BME280;40093;43.224;27.910;2023-03-16T03:39:07;99565.03;;;10.60;100.00
11523;BME280;40093;43.224;27.910;2023-03-16T03:41:34;99572.09;;;10.58;100.00
11523;BME280;40093;43.224;27.910;2023-03-16T03:44:03;99567.78;;;10.57;100.00
11523;BME280;40093;43.224;27.910;2023-03-16T03:46:30;99570.13;;;10.58;100.00
11523;BME280;40093;43.224;27.910;2023-03-16T03:48:57;99573.66;;;10.59;100.00
11523;BME280;40093;43.224;27.910;2023-03-16T03:51:28;99578.03;;;10.46;100.00
11523;BME280;40093;43.224;27.910;2023-03-16T03:53:56;99574.47;;;10.52;100.00
11523;BME280;40093;43.224;27.910;2023-03-16T03:56:25;99587.41;;;10.62;100.00
11523;BME280;40093;43.224;27.910;2023-03-16T03:58:52;99587.44;;;10.55;100.00
11523;BME280;40093;43.224;27.910;2023-03-16T04:01:19;99582.34;;;10.36;100.00
11523;BME280;40093;43.224;27.910;2023-03-16T04:03:46;99583.16;;;10.30;100.00
11523;BME280;40093;43.224;27.910;2023-03-16T04:06:13;99593.41;;;10.29;100.00
11523;BME280;40093;43.224;27.910;2023-03-16T04:08:40;99593.41;;;10.29;100.00
11523;BME280;40093;43.224;27.910;2023-03-16T04:11:07;99601.22;;;10.34;100.00
11523;BME280;40093;43.224;27.910;2023-03-16T04:13:35;99598.09;;;10.39;100.00
11523;BME280;40093;43.224;27.910;2023-03-16T04:16:02;99592.97;;;10.45;100.00
11523;BME280;40093;43.224;27.910;2023-03-16T04:18:30;99604.31;;;10.61;100.00
11523;BME280;40093;43.224;27.910;2023-03-16T04:21:04;99610.56;;;10.75;100.00
11523;BME280;40093;43.224;27.910;2023-03-16T04:23:31;99610.53;;;10.82;100.00
11523;BME280;40093;43.224;27.910;2023-03-16T04:25:59;99613.69;;;10.84;100.00
11523;BME280;40093;43.224;27.910;2023-03-16T04:28:26;99612.88;;;10.91;100.00
11523;BME280;40093;43.224;27.910;2023-03-16T04:30:54;99616.78;;;10.93;100.00
11523;BME280;40093;43.224;27.910;2023-03-16T04:33:22;99617.56;;;10.90;100.00
11523;BME280;40093;43.224;27.910;2023-03-16T04:35:48;99624.25;;;10.96;100.00
11523;BME280;40093;43.224;27.910;2023-03-16T04:38:16;99634.88;;;10.87;100.00
11523;BME280;40093;43.224;27.910;2023-03-16T04:40:43;99635.69;;;10.91;100.00
11523;BME280;40093;43.224;27.910;2023-03-16T04:43:10;99638.06;;;10.86;100.00
11523;BME280;40093;43.224;27.910;2023-03-16T04:45:38;99636.88;;;10.83;100.00
11523;BME280;40093;43.224;27.910;2023-03-16T04:48:07;99638.00;;;10.93;100.00
11523;BME280;40093;43.224;27.910;2023-03-16T04:50:35;99642.72;;;10.96;100.00
11523;BME280;40093;43.224;27.910;2023-03-16T04:53:02;99642.75;;;10.92;100.00
11523;BME280;40093;43.224;27.910;2023-03-16T04:55:30;99650.66;;;10.80;100.00
11523;BME280;40093;43.224;27.910;2023-03-16T04:57:57;99648.28;;;10.78;100.00
11523;BME280;40093;43.224;27.910;2023-03-16T05:00:25;99645.91;;;10.84;100.00
11523;BME280;40093;43.224;27.910;2023-03-16T05:02:52;99651.41;;;10.80;100.00
11523;BME280;40093;43.224;27.910;2023-03-16T05:05:20;99654.56;;;10.82;100.00
11523;BME280;40093;43.224;27.910;2023-03-16T05:07:47;99661.69;;;10.66;100.00
11523;BME280;40093;43.224;27.910;2023-03-16T05:10:16;99660.94;;;10.44;100.00
11523;BME280;40093;43.224;27.910;2023-03-16T05:12:44;99656.63;;;10.43;100.00
11523;BME280;40093;43.224;27.910;2023-03-16T05:15:11;99657.78;;;10.42;100.00
11523;BME280;40093;43.224;27.910;2023-03-16T05:17:38;99657.00;;;10.49;100.00
11523;BME280;40093;43.224;27.910;2023-03-16T05:20:07;99665.63;;;10.61;100.00
11523;BME280;40093;43.224;27.910;2023-03-16T05:22:39;99665.63;;;10.61;100.00
11523;BME280;40093;43.224;27.910;2023-03-16T05:25:07;99675.03;;;10.67;100.00
11523;BME280;40093;43.224;27.910;2023-03-16T05:27:34;99679.34;;;10.72;100.00
11523;BME280;40093;43.224;27.910;2023-03-16T05:30:00;99682.91;;;10.72;100.00
11523;BME280;40093;43.224;27.910;2023-03-16T05:32:27;99682.91;;;10.62;100.00
11523;BME280;40093;43.224;27.910;2023-03-16T05:34:54;99680.53;;;10.67;100.00
11523;BME280;40093;43.224;27.910;2023-03-16T05:37:22;99676.97;;;10.77;100.00
11523;BME280;40093;43.224;27.910;2023-03-16T05:39:51;99684.03;;;10.89;100.00
11523;BME280;40093;43.224;27.910;2023-03-16T05:42:19;99677.72;;;10.95;100.00
11523;BME280;40093;43.224;27.910;2023-03-16T05:44:48;99681.69;;;10.87;100.00
11523;BME280;40093;43.224;27.910;2023-03-16T05:47:14;99675.78;;;10.89;100.00
11523;BME280;40093;43.224;27.910;2023-03-16T05:49:41;99680.91;;;10.76;100.00
11523;BME280;40093;43.224;27.910;2023-03-16T05:52:08;99686.81;;;10.78;100.00
11523;BME280;40093;43.224;27.910;2023-03-16T05:54:35;99689.16;;;10.87;100.00
11523;BME280;40093;43.224;27.910;2023-03-16T05:57:04;99694.63;;;10.90;100.00
11523;BME280;40093;43.224;27.910;2023-03-16T05:59:31;99686.75;;;10.96;100.00
11523;BME280;40093;43.224;27.910;2023-03-16T06:01:58;99695.44;;;10.91;100.00
11523;BME280;40093;43.224;27.910;2023-03-16T06:04:25;99689.13;;;10.90;100.00
11523;BME280;40093;43.224;27.910;2023-03-16T06:06:52;99699.38;;;10.97;100.00
11523;BME280;40093;43.224;27.910;2023-03-16T06:09:19;99695.44;;;10.87;100.00
11523;BME280;40093;43.224;27.910;2023-03-16T06:11:46;99699.38;;;10.86;100.00
11523;BME280;40093;43.224;27.910;2023-03-16T06:14:14;99703.31;;;10.92;100.00
11523;BME280;40093;43.224;27.910;2023-03-16T06:16:41;99705.25;;;10.95;100.00
11523;BME280;40093;43.224;27.910;2023-03-16T06:19:08;99715.47;;;11.05;100.00
11523;BME280;40093;43.224;27.910;2023-03-16T06:21:35;99705.63;;;10.97;100.00
11523;BME280;40093;43.224;27.910;2023-03-16T06:24:03;99712.72;;;10.98;100.00
11523;BME280;40093;43.224;27.910;2023-03-16T06:26:32;99720.22;;;10.80;100.00
11523;BME280;40093;43.224;27.910;2023-03-16T06:28:58;99720.63;;;10.82;100.00
11523;BME280;40093;43.224;27.910;2023-03-16T06:31:27;99727.66;;;10.90;100.00
11523;BME280;40093;43.224;27.910;2023-03-16T06:33:54;99724.94;;;10.80;100.00
11523;BME280;40093;43.224;27.910;2023-03-16T06:36:20;99734.75;;;10.95;100.00
11523;BME280;40093;43.224;27.910;2023-03-16T06:38:47;99724.53;;;11.02;100.00
11523;BME280;40093;43.224;27.910;2023-03-16T06:41:14;99733.16;;;10.94;100.00
11523;BME280;40093;43.224;27.910;2023-03-16T06:43:41;99740.66;;;10.86;100.00
11523;BME280;40093;43.224;27.910;2023-03-16T06:46:08;99748.16;;;10.86;100.00
11523;BME280;40093;43.224;27.910;2023-03-16T06:48:37;99746.94;;;10.94;100.00
11523;BME280;40093;43.224;27.910;2023-03-16T06:51:03;99746.94;;;10.97;100.00
11523;BME280;40093;43.224;27.910;2023-03-16T06:53:32;99752.44;;;11.04;100.00
11523;BME280;40093;43.224;27.910;2023-03-16T06:55:59;99755.56;;;11.06;100.00
11523;BME280;40093;43.224;27.910;2023-03-16T06:58:25;99763.88;;;10.85;100.00
11523;BME280;40093;43.224;27.910;2023-03-16T07:00:52;99768.94;;;10.90;100.00
11523;BME280;40093;43.224;27.910;2023-03-16T07:03:19;99769.34;;;11.06;100.00
11523;BME280;40093;43.224;27.910;2023-03-16T07:05:47;99766.97;;;11.15;100.00
11523;BME280;40093;43.224;27.910;2023-03-16T07:08:14;99773.66;;;11.14;100.00
11523;BME280;40093;43.224;27.910;2023-03-16T07:10:41;99777.97;;;11.19;100.00
11523;BME280;40093;43.224;27.910;2023-03-16T07:13:08;99786.63;;;11.10;100.00
11523;BME280;40093;43.224;27.910;2023-03-16T07:15:35;99785.84;;;11.06;100.00
11523;BME280;40093;43.224;27.910;2023-03-16T07:18:02;99786.66;;;10.96;100.00
11523;BME280;40093;43.224;27.910;2023-03-16T07:20:29;99794.88;;;11.14;100.00
11523;BME280;40093;43.224;27.910;2023-03-16T07:22:58;99798.41;;;11.25;100.00
11523;BME280;40093;43.224;27.910;2023-03-16T07:25:25;99795.31;;;11.09;100.00
11523;BME280;40093;43.224;27.910;2023-03-16T07:27:52;99797.63;;;11.17;100.00
11523;BME280;40093;43.224;27.910;2023-03-16T07:30:19;99805.09;;;11.20;100.00
11523;BME280;40093;43.224;27.910;2023-03-16T07:32:46;99809.41;;;11.28;100.00
11523;BME280;40093;43.224;27.910;2023-03-16T07:35:13;99811.78;;;11.19;100.00
11523;BME280;40093;43.224;27.910;2023-03-16T07:37:39;99816.16;;;11.03;100.00
11523;BME280;40093;43.224;27.910;2023-03-16T07:40:10;99810.63;;;11.03;100.00
11523;BME280;40093;43.224;27.910;2023-03-16T07:42:38;99818.91;;;11.10;100.00
11523;BME280;40093;43.224;27.910;2023-03-16T07:45:06;99813.38;;;11.03;100.00
11523;BME280;40093;43.224;27.910;2023-03-16T07:47:34;99815.75;;;10.97;100.00
11523;BME280;40093;43.224;27.910;2023-03-16T07:50:00;99827.56;;;10.91;100.00
11523;BME280;40093;43.224;27.910;2023-03-16T07:52:27;99820.88;;;10.85;100.00
11523;BME280;40093;43.224;27.910;2023-03-16T07:54:54;99833.06;;;10.87;100.00
11523;BME280;40093;43.224;27.910;2023-03-16T07:57:22;99833.88;;;10.70;100.00
11523;BME280;40093;43.224;27.910;2023-03-16T07:59:49;99839.34;;;10.63;100.00
11523;BME280;40093;43.224;27.910;2023-03-16T08:02:18;99830.69;;;10.54;100.00
11523;BME280;40093;43.224;27.910;2023-03-16T08:04:46;99842.50;;;10.65;100.00
11523;BME280;40093;43.224;27.910;2023-03-16T08:07:14;99839.34;;;10.63;100.00
11523;BME280;40093;43.224;27.910;2023-03-16T08:09:41;99837.75;;;10.55;100.00
11523;BME280;40093;43.224;27.910;2023-03-16T08:12:08;99843.28;;;10.59;100.00
11523;BME280;40093;43.224;27.910;2023-03-16T08:14:37;99843.25;;;10.55;100.00
11523;BME280;40093;43.224;27.910;2023-03-16T08:17:05;99842.09;;;10.46;100.00
11523;BME280;40093;43.224;27.910;2023-03-16T08:19:32;99849.53;;;10.45;100.00
11523;BME280;40093;43.224;27.910;2023-03-16T08:21:59;99848.72;;;10.27;100.00
11523;BME280;40093;43.224;27.910;2023-03-16T08:24:27;99845.19;;;10.37;100.00
11523;BME280;40093;43.224;27.910;2023-03-16T08:26:54;99855.41;;;10.37;100.00
11523;BME280;40093;43.224;27.910;2023-03-16T08:29:21;99851.88;;;10.36;100.00
11523;BME280;40093;43.224;27.910;2023-03-16T08:31:49;99866.34;;;10.12;100.00
11523;BME280;40093;43.224;27.910;2023-03-16T08:34:16;99860.06;;;10.08;100.00
11523;BME280;40093;43.224;27.910;2023-03-16T08:36:43;99867.91;;;10.13;100.00
11523;BME280;40093;43.224;27.910;2023-03-16T08:39:10;99864.03;;;10.21;100.00
11523;BME280;40093;43.224;27.910;2023-03-16T08:41:37;99873.06;;;10.18;100.00
11523;BME280;40093;43.224;27.910;2023-03-16T08:44:05;99874.66;;;10.33;100.00
11523;BME280;40093;43.224;27.910;2023-03-16T08:46:33;99869.16;;;10.33;100.00
11523;BME280;40093;43.224;27.910;2023-03-16T08:49:01;99869.16;;;10.33;100.00
11523;BME280;40093;43.224;27.910;2023-03-16T08:51:28;99875.84;;;10.32;100.00
11523;BME280;40093;43.224;27.910;2023-03-16T08:53:55;99859.31;;;10.25;100.00
11523;BME280;40093;43.224;27.910;2023-03-16T08:56:23;99882.53;;;10.38;100.00
11523;BME280;40093;43.224;27.910;2023-03-16T08:58:49;99875.06;;;10.35;100.00
11523;BME280;40093;43.224;27.910;2023-03-16T09:01:17;99871.50;;;10.31;100.00
11523;BME280;40093;43.224;27.910;2023-03-16T09:03:44;99891.16;;;10.33;100.00
11523;BME280;40093;43.224;27.910;2023-03-16T09:06:15;99882.13;;;10.36;100.00
11523;BME280;40093;43.224;27.910;2023-03-16T09:08:42;99884.09;;;10.32;100.00
11523;BME280;40093;43.224;27.910;2023-03-16T09:11:11;99889.19;;;10.27;100.00
11523;BME280;40093;43.224;27.910;2023-03-16T09:13:39;99905.22;;;10.14;100.00
11523;BME280;40093;43.224;27.910;2023-03-16T09:16:08;99900.19;;;10.27;100.00
11523;BME280;40093;43.224;27.910;2023-03-16T09:18:36;99896.63;;;10.23;100.00
11523;BME280;40093;43.224;27.910;2023-03-16T09:21:05;99900.50;;;10.11;100.00
11523;BME280;40093;43.224;27.910;2023-03-16T09:23:34;99905.94;;;9.97;100.00
11523;BME280;40093;43.224;27.910;2023-03-16T09:26:03;99900.09;;;10.06;100.00
11523;BME280;40093;43.224;27.910;2023-03-16T09:28:32;99908.00;;;10.21;100.00
11523;BME280;40093;43.224;27.910;2023-03-16T09:31:00;99921.38;;;10.19;100.00
11523;BME280;40093;43.224;27.910;2023-03-16T09:33:29;99922.16;;;10.23;100.00
11523;BME280;40093;43.224;27.910;2023-03-16T09:35:56;99922.53;;;10.18;100.00
11523;BME280;40093;43.224;27.910;2023-03-16T09:38:24;99916.28;;;10.32;100.00
11523;BME280;40093;43.224;27.910;2023-03-16T09:40:57;99930.38;;;10.20;100.00
11523;BME280;40093;43.224;27.910;2023-03-16T09:43:57;99937.47;;;10.17;100.00
11523;BME280;40093;43.224;27.910;2023-03-16T09:46:27;99935.13;;;10.19;100.00
11523;BME280;40093;43.224;27.910;2023-03-16T09:48:56;99936.69;;;10.20;100.00
11523;BME280;40093;43.224;27.910;2023-03-16T09:51:36;99940.22;;;10.21;100.00
11523;BME280;40093;43.224;27.910;2023-03-16T09:54:11;99943.75;;;10.18;100.00
11523;BME280;40093;43.224;27.910;2023-03-16T09:56:42;99949.19;;;10.11;100.00
11523;BME280;40093;43.224;27.910;2023-03-16T09:59:12;99957.03;;;10.05;100.00
11523;BME280;40093;43.224;27.910;2023-03-16T10:01:48;99920.00;;;9.85;100.00
11523;BME280;40093;43.224;27.910;2023-03-16T10:04:26;99957.84;;;10.16;100.00
11523;BME280;40093;43.224;27.910;2023-03-16T10:07:03;99966.19;;;10.37;100.00
11523;BME280;40093;43.224;27.910;2023-03-16T10:09:36;99963.50;;;10.44;100.00
11523;BME280;40093;43.224;27.910;2023-03-16T10:12:06;99963.50;;;10.48;100.00
11523;BME280;40093;43.224;27.910;2023-03-16T10:14:39;99975.28;;;10.48;100.00
11523;BME280;40093;43.224;27.910;2023-03-16T10:17:15;99965.06;;;10.45;100.00
11523;BME280;40093;43.224;27.910;2023-03-16T10:19:46;99965.91;;;10.60;100.00
11523;BME280;40093;43.224;27.910;2023-03-16T10:22:19;99965.13;;;10.66;100.00
11523;BME280;40093;43.224;27.910;2023-03-16T10:24:55;99973.00;;;10.68;100.00
11523;BME280;40093;43.224;27.910;2023-03-16T10:27:28;99966.69;;;10.64;100.00
11523;BME280;40093;43.224;27.910;2023-03-16T10:29:55;99969.84;;;10.69;100.00
11523;BME280;40093;43.224;27.910;2023-03-16T10:32:22;99969.47;;;10.71;100.00
11523;BME280;40093;43.224;27.910;2023-03-16T10:34:57;99971.38;;;10.56;100.00
11523;BME280;40093;43.224;27.910;2023-03-16T10:37:29;99973.38;;;10.63;100.00
11523;BME280;40093;43.224;27.910;2023-03-16T10:39:58;99979.28;;;10.61;100.00
11523;BME280;40093;43.224;27.910;2023-03-16T10:42:27;99975.34;;;10.59;100.00
11523;BME280;40093;43.224;27.910;2023-03-16T10:44:58;99982.81;;;10.55;100.00
11523;BME280;40093;43.224;27.910;2023-03-16T10:47:28;99983.59;;;10.59;100.00
11523;BME280;40093;43.224;27.910;2023-03-16T10:49:55;99969.84;;;10.69;100.00
11523;BME280;40093;43.224;27.910;2023-03-16T10:52:30;99972.25;;;10.78;100.00
11523;BME280;40093;43.224;27.910;2023-03-16T10:55:00;99971.84;;;10.79;100.00
11523;BME280;40093;43.224;27.910;2023-03-16T10:57:32;99973.44;;;10.84;100.00
11523;BME280;40093;43.224;27.910;2023-03-16T11:00:04;99973.81;;;10.79;100.00
11523;BME280;40093;43.224;27.910;2023-03-16T11:02:41;99978.53;;;10.71;100.00
11523;BME280;40093;43.224;27.910;2023-03-16T11:05:13;99984.38;;;10.63;100.00
11523;BME280;40093;43.224;27.910;2023-03-16T11:07:47;99982.44;;;10.67;100.00
11523;BME280;40093;43.224;27.910;2023-03-16T11:10:25;99979.28;;;10.72;100.00
11523;BME280;40093;43.224;27.910;2023-03-16T11:13:00;99976.94;;;10.77;100.00
11523;BME280;40093;43.224;27.910;2023-03-16T11:15:35;99983.25;;;10.74;100.00
11523;BME280;40093;43.224;27.910;2023-03-16T11:18:02;99992.69;;;10.73;100.00
11523;BME280;40093;43.224;27.910;2023-03-16T11:20:31;99986.38;;;10.76;100.00
11523;BME280;40093;43.224;27.910;2023-03-16T11:22:59;99984.84;;;10.79;100.00
11523;BME280;40093;43.224;27.910;2023-03-16T11:25:30;99979.25;;;10.54;100.00
11523;BME280;40093;43.224;27.910;2023-03-16T11:28:08;99975.78;;;10.71;100.00
11523;BME280;40093;43.224;27.910;2023-03-16T11:30:41;99981.31;;;10.85;100.00
11523;BME280;40093;43.224;27.910;2023-03-16T11:33:12;99968.31;;;10.89;100.00
11523;BME280;40093;43.224;27.910;2023-03-16T11:35:45;99981.69;;;10.87;100.00
11523;BME280;40093;43.224;27.910;2023-03-16T11:38:14;99981.72;;;10.94;100.00
11523;BME280;40093;43.224;27.910;2023-03-16T11:40:52;99986.47;;;11.08;100.00
11523;BME280;40093;43.224;27.910;2023-03-16T11:43:46;99993.53;;;11.05;100.00
11523;BME280;40093;43.224;27.910;2023-03-16T11:46:16;99995.91;;;11.03;100.00
11523;BME280;40093;43.224;27.910;2023-03-16T11:51:37;99988.03;;;11.05;100.00
11523;BME280;40093;43.224;27.910;2023-03-16T11:54:22;99990.38;;;11.00;100.00
11523;BME280;40093;43.224;27.910;2023-03-16T11:56:57;100002.91;;;10.76;100.00
11523;BME280;40093;43.224;27.910;2023-03-16T11:59:46;99999.00;;;10.84;100.00
11523;BME280;40093;43.224;27.910;2023-03-16T12:02:31;100002.56;;;10.95;100.00
11523;BME280;40093;43.224;27.910;2023-03-16T12:05:27;99999.03;;;11.12;100.00
11523;BME280;40093;43.224;27.910;2023-03-16T12:08:08;99999.84;;;11.13;100.00
11523;BME280;40093;43.224;27.910;2023-03-16T12:10:45;100009.66;;;11.07;100.00
11523;BME280;40093;43.224;27.910;2023-03-16T12:13:34;100006.06;;;10.85;100.00
11523;BME280;40093;43.224;27.910;2023-03-16T12:16:10;100010.03;;;10.88;100.00
11523;BME280;40093;43.224;27.910;2023-03-16T12:18:44;100008.84;;;10.89;100.00
11523;BME280;40093;43.224;27.910;2023-03-16T12:21:15;100012.38;;;10.89;100.00
11523;BME280;40093;43.224;27.910;2023-03-16T12:23:50;100020.22;;;10.84;100.00
11523;BME280;40093;43.224;27.910;2023-03-16T12:26:20;100027.97;;;10.50;100.00
11523;BME280;40093;43.224;27.910;2023-03-16T12:28:49;100018.94;;;10.53;100.00
11523;BME280;40093;43.224;27.910;2023-03-16T12:31:22;100026.78;;;10.51;100.00
11523;BME280;40093;43.224;27.910;2023-03-16T12:33:58;100029.97;;;10.60;100.00
11523;BME280;40093;43.224;27.910;2023-03-16T12:36:47;100032.72;;;10.60;100.00
11523;BME280;40093;43.224;27.910;2023-03-16T12:39:23;100036.56;;;10.45;100.00
11523;BME280;40093;43.224;27.910;2023-03-16T12:42:05;100042.09;;;10.49;100.00
11523;BME280;40093;43.224;27.910;2023-03-16T12:44:38;100037.06;;;10.61;100.00
11523;BME280;40093;43.224;27.910;2023-03-16T12:47:16;100041.00;;;10.60;100.00
11523;BME280;40093;43.224;27.910;2023-03-16T12:49:45;100035.88;;;10.69;100.00
11523;BME280;40093;43.224;27.910;2023-03-16T12:52:13;100042.19;;;10.66;100.00
11523;BME280;40093;43.224;27.910;2023-03-16T12:54:49;100042.59;;;10.75;100.00